Time;durP1;ratioP1;P1;durP2;ratioP2;P2;SDS_P1;SDS_P2;PMS_P1;PMS_P2;Temp;Humidity;BMP_temperature;BMP_pressure;BME280_temperature;BME280_humidity;BME280_pressure;Samples;Min_cycle;Max_cycle;Signal;HPM_P1;HPM_P2
2023/03/17 00:01:56;;;;;;;8.82;5.40;;;5.90;55.20;;;1.13;95.92;95235.94;4841277;29;20026;-57
2023/03/17 00:04:26;;;;;;;8.07;5.57;;;5.80;55.20;;;1.09;96.14;95230.28;4840191;29;20045;-54
2023/03/17 00:06:55;;;;;;;9.57;5.75;;;5.90;55.30;;;1.07;96.09;95231.56;4841661;29;20018;-55
2023/03/17 00:09:21;;;;;;;9.15;5.68;;;5.80;55.30;;;1.05;95.55;95237.00;4839253;29;20029;-55
2023/03/17 00:11:48;;;;;;;10.20;6.07;;;5.80;55.30;;;1.04;96.14;95237.22;4841495;29;20085;-53
2023/03/17 00:14:15;;;;;;;11.77;6.68;;;5.80;55.40;;;1.03;96.22;95239.03;4839394;29;20081;-53
2023/03/17 00:16:48;;;;;;;8.30;5.88;;;5.80;55.50;;;1.02;95.90;95232.19;4841047;29;20067;-54
2023/03/17 00:19:34;;;;;;;8.57;5.63;;;5.80;56.20;;;1.00;97.07;95223.69;4840472;29;20121;-54
2023/03/17 00:22:04;;;;;;;10.82;5.72;;;5.80;55.70;;;1.02;96.02;95221.69;4830306;29;20029;-54
2023/03/17 00:24:31;;;;;;;7.15;5.40;;;5.80;55.60;;;0.97;96.24;95224.13;4840116;29;20041;-54
2023/03/17 00:26:57;;;;;;;8.45;5.60;;;5.80;55.60;;;0.95;96.83;95220.13;4840351;29;20586;-52
2023/03/17 00:29:24;;;;;;;13.20;5.88;;;5.80;55.60;;;0.97;96.59;95226.75;4841084;29;20033;-57
2023/03/17 00:31:50;;;;;;;12.13;6.47;;;5.80;55.70;;;0.99;96.38;95222.09;4840493;29;20037;-55
2023/03/17 00:34:18;;;;;;;10.18;5.53;;;5.80;55.70;;;1.01;96.20;95229.78;4839819;29;20029;-54
2023/03/17 00:36:50;;;;;;;8.45;5.65;;;5.70;55.70;;;1.00;96.30;95222.91;4840158;29;20535;-53
2023/03/17 00:39:17;;;;;;;9.10;5.78;;;5.70;55.80;;;0.96;96.58;95229.59;4828677;29;20116;-53
2023/03/17 00:41:43;;;;;;;11.07;6.32;;;5.70;55.80;;;0.98;95.89;95233.63;4841077;29;20025;-54
2023/03/17 00:44:10;;;;;;;9.10;6.43;;;5.70;55.80;;;0.95;95.36;95231.44;4840001;29;20029;-54
2023/03/17 00:46:40;;;;;;;11.40;6.13;;;5.70;55.80;;;0.83;95.97;95228.69;4841085;29;20100;-55
2023/03/17 00:49:20;;;;;;;8.95;6.25;;;5.70;55.90;;;0.78;96.64;95225.06;4839671;29;20132;-57
2023/03/17 00:51:48;;;;;;;9.40;6.00;;;5.60;56.00;;;0.75;96.67;95228.13;4831991;29;20030;-54
2023/03/17 00:54:16;;;;;;;10.85;6.38;;;5.60;55.80;;;0.70;96.83;95231.38;4839840;29;20149;-56
2023/03/17 00:56:44;;;;;;;8.05;5.50;;;5.60;55.90;;;0.67;97.41;95237.84;4839776;29;20029;-54
2023/03/17 00:59:26;;;;;;;8.77;5.60;;;5.50;55.90;;;0.64;97.42;95229.59;4839900;29;20048;-56
2023/03/17 01:01:53;;;;;;;7.57;5.40;;;5.50;56.10;;;0.59;97.62;95226.81;4839038;29;20052;-54
2023/03/17 01:04:19;;;;;;;8.35;6.25;;;5.50;56.00;;;0.60;97.90;95220.56;4840804;29;20045;-57
2023/03/17 01:06:47;;;;;;;9.77;6.15;;;5.40;56.10;;;0.60;96.95;95210.09;4840830;29;20029;-56
2023/03/17 01:09:17;;;;;;;9.48;6.28;;;5.40;56.20;;;0.54;97.74;95211.72;4840030;29;20115;-51
2023/03/17 01:11:43;;;;;;;9.70;6.22;;;5.40;56.30;;;0.53;97.72;95196.19;4840708;29;20056;-56
2023/03/17 01:14:12;;;;;;;10.82;6.22;;;5.40;56.90;;;0.52;97.82;95195.41;4839631;29;20384;-53
2023/03/17 01:16:38;;;;;;;9.05;5.38;;;5.40;56.40;;;0.54;98.36;95198.63;4840901;29;20469;-53
2023/03/17 01:19:04;;;;;;;8.38;5.35;;;5.40;56.40;;;0.55;98.82;95192.34;4840513;29;20062;-53
2023/03/17 01:21:30;;;;;;;8.93;5.00;;;5.30;56.50;;;0.52;99.64;95195.41;4839630;29;20080;-53
2023/03/17 01:23:56;;;;;;;9.65;5.30;;;5.40;56.60;;;0.53;98.41;95206.69;4840769;29;20034;-52
2023/03/17 01:26:22;;;;;;;7.93;4.93;;;5.40;56.60;;;0.45;98.92;95205.91;4841042;29;20048;-53
2023/03/17 01:28:48;;;;;;;10.38;5.40;;;5.30;56.60;;;0.50;98.80;95209.72;4844016;29;20055;-54
2023/03/17 01:31:14;;;;;;;6.97;4.90;;;5.30;56.60;;;0.48;98.34;95203.91;4844204;29;20053;-53
2023/03/17 01:33:40;;;;;;;11.52;5.45;;;5.30;56.70;;;0.42;98.61;95205.53;4842814;29;20033;-55
2023/03/17 01:36:08;;;;;;;9.43;5.25;;;5.30;56.60;;;0.42;99.22;95201.09;4844223;29;20459;-55
2023/03/17 01:38:34;;;;;;;7.78;5.57;;;5.30;56.70;;;0.44;99.90;95193.84;4842997;29;20075;-55
2023/03/17 01:41:00;;;;;;;7.70;5.10;;;5.30;56.80;;;0.49;99.75;95181.91;4844116;29;20063;-58
2023/03/17 01:43:30;;;;;;;8.95;5.57;;;5.30;57.00;;;0.52;99.85;95178.88;4843983;29;20053;-52
2023/03/17 01:46:16;;;;;;;8.85;5.70;;;5.30;57.00;;;0.59;99.56;95179.63;4843865;29;20029;-53
2023/03/17 01:49:04;;;;;;;12.85;5.22;;;5.30;57.20;;;0.62;99.06;95179.19;4843744;29;20048;-52
2023/03/17 01:51:45;;;;;;;9.25;5.82;;;5.30;57.20;;;0.60;98.89;95178.63;4837762;29;20040;-55
2023/03/17 01:55:01;;;;;;;8.00;5.70;;;5.30;57.20;;;0.57;98.45;95171.19;4831841;29;20025;-53
2023/03/17 01:57:44;;;;;;;8.82;5.18;;;5.30;57.20;;;0.51;99.08;95170.22;4826303;29;20045;-53
2023/03/17 02:00:17;;;;;;;8.65;4.30;;;5.30;57.10;;;0.51;99.24;95161.56;4843710;29;20036;-54
2023/03/17 02:02:55;;;;;;;8.98;5.55;;;5.40;57.30;;;0.55;98.94;95167.97;4842697;29;20120;-55
2023/03/17 02:05:30;;;;;;;9.13;5.88;;;5.30;57.20;;;0.54;98.43;95169.78;4843289;29;20045;-52
2023/03/17 02:07:57;;;;;;;7.55;5.10;;;5.30;57.10;;;0.47;98.81;95161.19;4841076;29;20421;-57
2023/03/17 02:10:28;;;;;;;7.45;5.22;;;5.30;57.10;;;0.42;99.24;95169.66;4842351;29;20098;-55
2023/03/17 02:13:02;;;;;;;6.82;4.65;;;5.30;57.20;;;0.44;100.00;95179.94;4843278;29;20036;-55
2023/03/17 02:15:49;;;;;;;7.90;5.07;;;5.30;57.20;;;0.42;99.79;95174.91;4840530;29;20021;-55
2023/03/17 02:18:19;;;;;;;10.27;5.35;;;5.30;57.40;;;0.41;99.71;95175.91;4843056;29;20459;-55
2023/03/17 02:20:45;;;;;;;7.95;5.50;;;5.20;57.30;;;0.39;98.95;95174.50;4842391;29;20121;-58
2023/03/17 02:23:17;;;;;;;8.73;5.65;;;5.20;57.20;;;0.35;99.06;95184.63;4842126;29;20112;-58
2023/03/17 02:25:49;;;;;;;7.88;4.78;;;5.20;57.30;;;0.28;99.44;95180.41;4841442;29;20108;-58
2023/03/17 02:28:24;;;;;;;10.68;5.43;;;5.10;57.20;;;0.17;100.00;95180.06;4826990;29;20037;-58
2023/03/17 02:30:51;;;;;;;9.73;5.20;;;5.10;57.30;;;0.15;100.00;95173.44;4841930;29;20045;-53
2023/03/17 02:33:17;;;;;;;8.45;6.40;;;5.10;57.30;;;0.12;99.54;95177.25;4842085;29;20033;-56
2023/03/17 02:35:43;;;;;;;8.50;5.38;;;5.00;57.30;;;0.01;100.00;95175.31;4842818;29;20029;-58
2023/03/17 02:38:10;;;;;;;7.82;5.22;;;5.00;57.40;;;-0.02;100.00;95178.34;4841121;29;20081;-58
2023/03/17 02:40:35;;;;;;;8.82;5.85;;;4.90;57.50;;;0.08;100.00;95178.69;4843130;29;20810;-57
2023/03/17 02:43:01;;;;;;;10.10;5.30;;;5.00;58.20;;;0.14;100.00;95171.81;4842928;29;20037;-57
2023/03/17 02:45:28;;;;;;;8.10;4.97;;;5.00;57.70;;;0.10;100.00;95176.69;4841700;29;20029;-58
2023/03/17 02:47:56;;;;;;;9.63;5.75;;;5.00;57.80;;;0.00;100.00;95178.97;4841696;29;20563;-57
2023/03/17 02:50:27;;;;;;;8.43;5.32;;;4.90;57.70;;;-0.01;100.00;95175.50;4835966;29;20030;-58
2023/03/17 02:52:54;;;;;;;7.45;5.22;;;4.90;57.80;;;-0.03;100.00;95177.56;4847311;29;20467;-58
2023/03/17 02:55:21;;;;;;;7.55;4.97;;;4.90;57.80;;;-0.05;100.00;95173.53;4842603;29;20465;-58
2023/03/17 02:57:46;;;;;;;7.68;4.75;;;4.90;57.80;;;-0.07;100.00;95178.97;4840280;29;20037;-58
2023/03/17 03:00:13;;;;;;;7.55;5.32;;;4.90;57.80;;;-0.11;100.00;95176.97;4842383;29;20090;-58
2023/03/17 03:02:40;;;;;;;11.23;5.85;;;4.80;57.80;;;-0.11;100.00;95169.91;4841712;29;20025;-57
2023/03/17 03:05:07;;;;;;;8.02;5.15;;;4.80;57.90;;;-0.11;100.00;95177.78;4842121;29;20056;-58
2023/03/17 03:07:33;;;;;;;6.55;5.05;;;4.80;58.00;;;-0.16;100.00;95169.72;4841486;29;20068;-58
2023/03/17 03:10:01;;;;;;;7.55;5.05;;;4.80;58.00;;;-0.17;100.00;95172.56;4842498;29;20085;-58
2023/03/17 03:12:27;;;;;;;8.10;5.70;;;4.80;58.10;;;-0.13;100.00;95174.56;4842193;29;20040;-58
2023/03/17 03:14:52;;;;;;;8.35;5.32;;;4.80;58.10;;;-0.08;100.00;95179.19;4840913;29;20025;-58
2023/03/17 03:17:20;;;;;;;7.13;4.63;;;4.80;58.20;;;-0.08;100.00;95173.94;4842409;29;20041;-58
2023/03/17 03:19:48;;;;;;;7.47;5.15;;;4.80;58.20;;;-0.10;100.00;95187.22;4841385;29;20473;-57
2023/03/17 03:22:14;;;;;;;7.47;4.82;;;4.80;58.20;;;-0.09;100.00;95191.47;4842224;29;20076;-58
2023/03/17 03:24:40;;;;;;;10.10;5.53;;;4.80;58.90;;;-0.07;100.00;95184.19;4853106;29;20053;-56
2023/03/17 03:27:06;;;;;;;8.50;5.63;;;4.80;58.40;;;-0.05;100.00;95186.63;4841137;29;20380;-58
2023/03/17 03:29:33;;;;;;;8.60;5.57;;;4.80;58.40;;;-0.05;100.00;95181.38;4842217;29;20389;-58
2023/03/17 03:31:59;;;;;;;12.25;6.65;;;4.80;59.00;;;-0.05;100.00;95181.38;4841115;29;20021;-57
2023/03/17 03:34:26;;;;;;;12.45;6.25;;;4.80;58.50;;;0.01;100.00;95185.00;4837479;29;20025;-55
2023/03/17 03:36:52;;;;;;;8.13;4.97;;;4.80;58.70;;;-0.02;100.00;95188.81;4833839;29;20069;-58
2023/03/17 03:39:18;;;;;;;7.72;5.30;;;4.80;58.70;;;0.01;100.00;95185.00;4841130;29;20063;-57
2023/03/17 03:41:44;;;;;;;9.80;5.60;;;4.80;58.70;;;0.04;100.00;95195.06;4841796;29;20017;-53
2023/03/17 03:44:10;;;;;;;9.85;6.25;;;4.90;58.70;;;0.00;100.00;95194.66;4841219;29;20035;-58
2023/03/17 03:46:35;;;;;;;7.65;4.85;;;4.90;58.70;;;-0.02;100.00;95191.44;4841563;29;20021;-58
2023/03/17 03:49:02;;;;;;;10.32;5.40;;;4.90;58.70;;;0.02;100.00;95189.22;4841579;29;20029;-55
2023/03/17 03:51:27;;;;;;;8.75;5.18;;;4.90;58.70;;;0.04;100.00;95195.06;4836227;29;20022;-58
2023/03/17 03:53:53;;;;;;;8.23;5.60;;;4.90;58.80;;;0.05;100.00;95194.81;4839183;29;20043;-57
2023/03/17 03:56:19;;;;;;;9.73;6.18;;;4.90;58.80;;;0.06;100.00;95188.56;4841010;29;20116;-57
2023/03/17 03:58:46;;;;;;;8.20;5.60;;;4.90;58.80;;;0.08;100.00;95185.75;4841646;29;20033;-58
2023/03/17 04:01:12;;;;;;;10.35;6.93;;;4.90;58.90;;;0.08;100.00;95183.94;4833552;29;20049;-55
2023/03/17 04:03:39;;;;;;;11.38;5.75;;;4.90;59.00;;;0.11;100.00;95187.97;4838217;29;20501;-57
2023/03/17 04:06:05;;;;;;;8.00;5.75;;;4.90;59.00;;;0.10;100.00;95188.97;4841061;29;20021;-57
2023/03/17 04:08:32;;;;;;;8.60;5.93;;;4.90;59.10;;;0.11;100.00;95191.38;4840379;29;20089;-58
2023/03/17 04:10:58;;;;;;;12.07;5.93;;;5.00;59.10;;;0.10;100.00;95179.31;4838733;29;20036;-57
2023/03/17 04:13:24;;;;;;;10.07;5.45;;;5.00;59.10;;;0.09;100.00;95184.75;4841061;29;20034;-57
2023/03/17 04:15:50;;;;;;;8.23;5.20;;;5.00;59.10;;;0.05;100.00;95178.31;4840393;29;20033;-56
2023/03/17 04:18:16;;;;;;;10.13;5.07;;;4.90;59.70;;;0.04;100.00;95174.91;4840889;29;20072;-56
2023/03/17 04:20:42;;;;;;;7.18;5.10;;;5.00;59.10;;;0.05;100.00;95168.63;4840391;29;20049;-57
2023/03/17 04:23:08;;;;;;;9.98;4.90;;;4.90;59.10;;;0.02;100.00;95168.25;4840277;29;20037;-56
2023/03/17 04:25:34;;;;;;;9.50;5.07;;;5.00;59.10;;;0.00;100.00;95176.34;4840381;29;20109;-56
2023/03/17 04:28:00;;;;;;;10.68;5.70;;;4.90;59.10;;;-0.01;100.00;95179.94;4839157;29;20406;-56
2023/03/17 04:30:26;;;;;;;10.27;6.00;;;4.90;59.10;;;-0.02;100.00;95175.72;4841016;29;20085;-55
2023/03/17 04:32:52;;;;;;;9.07;5.68;;;4.90;59.10;;;-0.05;100.00;95176.94;4839791;29;20037;-55
2023/03/17 04:35:23;;;;;;;9.57;5.25;;;4.90;59.20;;;-0.08;100.00;95171.31;4840864;29;20092;-58
2023/03/17 04:37:50;;;;;;;10.52;5.78;;;4.80;59.30;;;-0.06;100.00;95171.94;4839891;29;20044;-57
2023/03/17 04:40:18;;;;;;;8.30;5.43;;;4.80;59.30;;;-0.02;100.00;95181.75;4841302;29;20449;-57
2023/03/17 04:42:44;;;;;;;12.27;6.47;;;4.80;59.40;;;-0.02;100.00;95175.72;4840809;29;20052;-58
2023/03/17 04:45:14;;;;;;;10.25;6.18;;;4.80;59.40;;;-0.03;100.00;95177.56;4839916;29;20021;-58
2023/03/17 04:47:40;;;;;;;10.38;6.40;;;4.80;59.50;;;0.02;100.00;95173.50;4841084;29;20485;-57
2023/03/17 04:50:08;;;;;;;8.32;4.80;;;4.80;59.50;;;0.02;100.00;95171.69;4838706;29;20484;-57
2023/03/17 04:52:36;;;;;;;13.45;6.07;;;4.80;59.60;;;-0.03;100.00;95172.31;4836582;29;20029;-57
2023/03/17 04:55:04;;;;;;;13.13;6.13;;;4.80;59.50;;;-0.10;100.00;95166.28;4840034;29;20022;-58
2023/03/17 04:57:30;;;;;;;11.18;6.00;;;4.80;60.00;;;-0.12;100.00;95154.44;4839936;29;20061;-58
2023/03/17 04:59:56;;;;;;;10.40;6.53;;;4.80;59.40;;;-0.14;100.00;95154.63;4852909;29;20067;-57
2023/03/17 05:02:22;;;;;;;13.07;6.32;;;4.70;59.40;;;-0.18;100.00;95156.06;4841085;29;20053;-57
2023/03/17 05:04:48;;;;;;;10.07;7.45;;;4.70;59.50;;;-0.18;100.00;95157.88;4877979;23;20665;-56
2023/03/17 05:07:14;;;;;;;13.63;7.80;;;4.70;59.60;;;-0.18;100.00;95156.06;4879084;29;20036;-48
2023/03/17 05:09:41;;;;;;;14.20;7.60;;;4.70;59.70;;;-0.18;100.00;95160.50;4879953;29;20059;-48
2023/03/17 05:12:09;;;;;;;9.35;5.85;;;4.70;60.50;;;-0.22;100.00;95165.31;4881219;29;20044;-53
2023/03/17 05:14:36;;;;;;;11.52;7.13;;;4.70;59.80;;;-0.24;100.00;95164.75;4869722;29;20113;-47
2023/03/17 05:17:02;;;;;;;11.18;7.30;;;4.70;59.80;;;-0.29;100.00;95160.09;4862515;29;20111;-48
2023/03/17 05:19:28;;;;;;;11.70;7.97;;;4.60;59.70;;;-0.34;100.00;95165.19;4862639;29;20025;-47
2023/03/17 05:21:54;;;;;;;13.90;7.18;;;4.60;59.70;;;-0.34;100.00;95172.22;4861575;29;20049;-48
2023/03/17 05:24:19;;;;;;;9.60;5.90;;;4.60;59.80;;;-0.33;100.00;95166.78;4862517;29;20060;-51
2023/03/17 05:26:45;;;;;;;10.13;7.03;;;4.60;59.80;;;-0.32;100.00;95173.59;4863072;29;20120;-50
2023/03/17 05:29:11;;;;;;;10.90;6.85;;;4.60;59.80;;;-0.30;100.00;95183.88;4862334;29;20047;-46
2023/03/17 05:31:37;;;;;;;14.80;7.10;;;4.60;59.90;;;-0.31;100.00;95179.66;4861608;29;20037;-50
2023/03/17 05:34:04;;;;;;;11.45;7.22;;;4.60;59.90;;;-0.32;100.00;95176.22;4867081;29;20028;-48
2023/03/17 05:36:31;;;;;;;14.48;7.40;;;4.60;59.90;;;-0.35;100.00;95173.22;4861902;29;20780;-49
2023/03/17 05:38:57;;;;;;;13.25;6.65;;;4.60;59.90;;;-0.33;100.00;95177.25;4870315;29;20039;-47
2023/03/17 05:41:23;;;;;;;10.23;6.47;;;4.50;59.90;;;-0.31;100.00;95180.47;4862175;29;20020;-49
2023/03/17 05:43:49;;;;;;;9.88;5.78;;;4.60;60.00;;;-0.31;100.00;95172.63;4860795;29;20088;-47
2023/03/17 05:46:15;;;;;;;10.60;6.03;;;4.60;60.00;;;-0.29;100.00;95173.19;4862249;29;20032;-51
2023/03/17 05:48:41;;;;;;;10.68;6.57;;;4.50;60.00;;;-0.30;100.00;95171.59;4861874;29;20035;-49
2023/03/17 05:51:07;;;;;;;10.02;6.00;;;4.60;60.00;;;-0.30;100.00;95174.22;4872468;29;20488;-47
2023/03/17 05:53:35;;;;;;;10.30;5.95;;;4.60;60.00;;;-0.32;100.00;95178.84;4861759;29;20084;-52
2023/03/17 05:56:01;;;;;;;12.88;5.43;;;4.60;60.10;;;-0.32;100.00;95178.84;4863863;29;20460;-48
2023/03/17 05:58:27;;;;;;;8.75;4.60;;;4.60;60.10;;;-0.28;100.00;95176.66;4866078;29;20072;-48
2023/03/17 06:00:53;;;;;;;6.95;4.60;;;4.70;60.10;;;-0.26;100.00;95177.22;4859957;29;20504;-56
2023/03/17 06:03:21;;;;;;;8.32;4.63;;;4.70;60.10;;;-0.20;100.00;95180.84;4860406;29;20123;-53
2023/03/17 06:05:47;;;;;;;6.97;5.25;;;4.70;60.10;;;-0.18;100.00;95176.22;4853196;29;20053;-53
2023/03/17 06:08:13;;;;;;;12.57;5.07;;;4.80;60.10;;;-0.15;100.00;95173.97;4860674;29;20539;-47
2023/03/17 06:10:41;;;;;;;7.07;4.88;;;4.80;60.10;;;-0.08;100.00;95179.19;4869773;29;20362;-48
2023/03/17 06:13:06;;;;;;;7.72;4.60;;;4.80;60.00;;;-0.05;100.00;95174.31;4857267;29;20025;-47
2023/03/17 06:15:35;;;;;;;5.45;3.67;;;4.90;60.00;;;0.02;100.00;95173.50;4867168;29;20044;-46
2023/03/17 06:18:03;;;;;;;7.45;4.13;;;5.00;60.00;;;0.05;100.00;95166.03;4861335;29;20037;-47
2023/03/17 06:20:31;;;;;;;5.80;3.20;;;5.00;60.00;;;0.11;100.00;95162.56;4859369;29;20028;-50
2023/03/17 06:22:58;;;;;;;4.38;2.63;;;5.10;60.00;;;0.19;100.00;95164.16;4859528;29;20035;-46
2023/03/17 06:25:25;;;;;;;5.97;2.80;;;5.20;60.00;;;0.26;100.00;95153.63;4861227;29;20061;-47
2023/03/17 06:27:53;;;;;;;3.65;2.13;;;5.30;60.00;;;0.36;100.00;95159.22;4859932;29;20119;-47
2023/03/17 06:30:21;;;;;;;4.20;2.38;;;5.40;59.90;;;0.43;100.00;95159.97;4861442;29;20376;-47
2023/03/17 06:32:47;;;;;;;2.97;1.90;;;5.50;59.90;;;0.51;100.00;95157.09;4860113;29;20084;-48
2023/03/17 06:35:13;;;;;;;4.80;2.53;;;5.60;59.80;;;0.64;100.00;95162.25;4860517;29;20036;-48
2023/03/17 06:37:39;;;;;;;3.70;1.95;;;5.70;59.80;;;0.77;100.00;95166.59;4859264;29;20045;-49
2023/03/17 06:40:09;;;;;;;6.28;1.92;;;5.90;59.80;;;0.91;100.00;95162.88;4860568;29;20113;-47
2023/03/17 06:42:35;;;;;;;4.20;2.00;;;6.00;59.80;;;1.10;100.00;95168.97;4860044;29;20029;-47
2023/03/17 06:45:02;;;;;;;3.15;1.77;;;6.20;59.70;;;1.26;99.84;95177.31;4858442;29;20125;-47
2023/03/17 06:47:28;;;;;;;3.08;1.80;;;6.40;59.60;;;1.41;99.42;95180.41;4860728;29;20145;-48
2023/03/17 06:49:54;;;;;;;3.20;1.77;;;6.60;59.60;;;1.57;98.48;95185.06;4858777;29;22834;-47
2023/03/17 06:52:20;;;;;;;2.97;1.73;;;6.80;59.50;;;1.77;98.52;95189.31;4857501;29;20043;-49
2023/03/17 06:54:46;;;;;;;2.92;1.90;;;6.90;59.40;;;1.96;97.83;95196.16;4828749;29;20123;-48
2023/03/17 06:57:12;;;;;;;6.53;2.35;;;7.20;59.30;;;2.14;96.77;95205.88;4858024;29;20111;-49
2023/03/17 06:59:38;;;;;;;4.05;2.65;;;7.40;59.10;;;2.32;96.01;95199.78;4860657;29;20076;-49
2023/03/17 07:02:04;;;;;;;5.93;3.40;;;7.70;58.90;;;2.48;93.65;95201.00;4859803;29;20028;-47
2023/03/17 07:04:30;;;;;;;5.75;3.35;;;8.00;58.70;;;2.66;92.78;95208.00;4851179;29;20053;-46
2023/03/17 07:06:56;;;;;;;5.20;3.58;;;8.20;58.50;;;2.87;92.43;95201.44;4860628;29;20033;-47
2023/03/17 07:09:22;;;;;;;5.63;3.60;;;8.50;58.30;;;3.10;91.86;95195.41;4861912;29;20041;-47
2023/03/17 07:11:48;;;;;;;5.47;3.30;;;8.70;58.00;;;3.34;91.13;95199.69;4860367;29;20031;-47
2023/03/17 07:14:14;;;;;;;8.95;3.15;;;9.00;57.90;;;3.64;89.88;95190.88;4859202;29;20103;-47
2023/03/17 07:16:40;;;;;;;4.75;3.05;;;9.30;57.60;;;3.92;87.40;95192.78;4860263;29;20020;-49
2023/03/17 07:19:07;;;;;;;5.95;2.85;;;9.60;57.40;;;4.23;84.86;95188.13;4859243;29;20028;-47
2023/03/17 07:21:33;;;;;;;10.73;2.78;;;10.00;57.10;;;4.57;83.49;95189.81;4856866;29;20544;-50
2023/03/17 07:23:59;;;;;;;5.43;3.42;;;10.40;56.90;;;4.88;78.91;95188.53;4858435;29;20029;-51
2023/03/17 07:26:25;;;;;;;2.80;2.50;;;10.70;56.40;;;5.18;77.85;95197.22;4860117;29;20024;-48
2023/03/17 07:28:51;;;;;;;6.22;3.45;;;11.10;56.00;;;5.39;76.76;95206.25;4860118;29;20436;-48
2023/03/17 07:31:17;;;;;;;6.65;3.50;;;11.40;55.50;;;5.57;76.21;95204.16;4860262;29;20021;-47
2023/03/17 07:33:42;;;;;;;5.65;3.50;;;11.70;55.10;;;5.67;75.98;95202.69;4859521;29;20462;-48
2023/03/17 07:36:09;;;;;;;4.68;3.55;;;12.00;54.60;;;5.84;74.67;95198.19;4860073;29;20116;-51
2023/03/17 07:38:36;;;;;;;4.95;3.47;;;12.20;54.10;;;5.95;72.97;95197.31;4858879;29;20047;-47
2023/03/17 07:41:03;;;;;;;6.05;3.78;;;12.40;53.70;;;6.15;72.14;95202.06;4859770;29;20044;-47
2023/03/17 07:43:30;;;;;;;6.10;3.58;;;12.50;53.30;;;6.49;71.92;95199.28;4859976;29;20122;-49
2023/03/17 07:45:56;;;;;;;7.03;3.80;;;12.80;53.10;;;6.75;69.64;95207.50;4859067;29;20540;-47
2023/03/17 07:48:22;;;;;;;4.25;2.58;;;12.90;52.80;;;6.85;66.68;95202.31;4852565;29;20563;-51
2023/03/17 07:50:48;;;;;;;4.85;2.65;;;13.10;52.40;;;7.00;65.40;95206.97;4858424;29;20053;-51
2023/03/17 07:53:14;;;;;;;6.43;3.10;;;13.20;52.00;;;7.20;65.24;95196.53;4859921;29;20129;-48
2023/03/17 07:55:41;;;;;;;4.95;2.92;;;13.50;51.60;;;7.51;62.84;95202.88;4858758;29;20032;-52
2023/03/17 07:58:08;;;;;;;5.45;2.75;;;13.80;51.20;;;7.76;61.95;95204.91;4859290;29;20055;-49
2023/03/17 08:00:34;;;;;;;5.22;2.95;;;14.10;50.70;;;8.01;62.85;95203.44;4859276;29;20028;-48
2023/03/17 08:03:01;;;;;;;4.03;2.70;;;14.40;50.40;;;8.24;62.40;95204.88;4858271;29;20039;-47
2023/03/17 08:05:27;;;;;;;7.55;3.15;;;14.70;49.90;;;8.54;61.12;95202.38;4858640;29;20143;-48
2023/03/17 08:07:53;;;;;;;5.05;2.70;;;15.10;49.50;;;8.99;60.42;95198.28;4858323;29;20032;-47
2023/03/17 08:10:19;;;;;;;3.42;2.30;;;15.50;49.00;;;9.56;58.59;95195.59;4852759;29;20031;-47
2023/03/17 08:12:50;;;;;;;3.00;2.45;;;16.00;48.50;;;10.04;58.08;95190.78;4859479;29;20061;-47
2023/03/17 08:15:17;;;;;;;4.38;2.53;;;16.50;48.00;;;10.58;56.20;95182.06;4857844;29;20098;-47
2023/03/17 08:17:43;;;;;;;4.30;2.85;;;17.00;47.50;;;11.08;54.40;95186.31;4859211;29;20033;-48
2023/03/17 08:20:10;;;;;;;4.22;3.00;;;17.50;47.00;;;11.51;53.06;95180.41;4858088;29;20142;-47
2023/03/17 08:22:36;;;;;;;3.88;3.00;;;18.00;46.30;;;11.85;51.07;95179.59;4859256;29;20033;-48
2023/03/17 08:25:02;;;;;;;4.38;2.50;;;18.40;45.50;;;11.98;50.16;95182.41;4858948;29;20047;-47
2023/03/17 08:27:28;;;;;;;3.20;2.25;;;18.70;44.70;;;12.16;48.30;95190.75;4858022;29;20041;-50
2023/03/17 08:29:54;;;;;;;5.38;2.90;;;19.00;43.90;;;12.41;46.72;95182.47;4859104;29;20025;-48
2023/03/17 08:32:21;;;;;;;4.53;3.08;;;19.30;43.20;;;12.67;45.86;95184.81;4857914;29;20150;-48
2023/03/17 08:34:48;;;;;;;4.38;2.92;;;19.50;42.40;;;12.82;45.34;95176.59;4852927;29;20449;-47
2023/03/17 08:37:13;;;;;;;4.22;2.88;;;19.60;41.70;;;12.96;44.62;95182.81;4858711;29;20044;-48
2023/03/17 08:39:39;;;;;;;5.47;2.58;;;19.80;41.20;;;13.02;44.73;95182.75;4859250;29;20380;-47
2023/03/17 08:42:06;;;;;;;2.47;2.28;;;19.90;41.20;;;12.98;45.73;95184.41;4859041;29;20235;-48
2023/03/17 08:44:32;;;;;;;3.97;2.78;;;19.90;40.20;;;13.05;45.82;95180.28;4857920;29;20033;-48
2023/03/17 08:46:58;;;;;;;3.70;2.83;;;19.80;40.00;;;13.24;45.23;95176.81;4858786;29;20028;-52
2023/03/17 08:49:25;;;;;;;4.22;2.55;;;19.90;39.60;;;13.40;46.39;95175.50;4859086;29;20084;-47
2023/03/17 08:51:51;;;;;;;7.72;3.30;;;20.10;39.50;;;13.37;44.87;95170.75;4871972;29;20028;-49
2023/03/17 08:54:16;;;;;;;5.55;2.70;;;20.30;39.20;;;13.41;44.87;95169.88;4858984;29;20023;-48
2023/03/17 08:56:42;;;;;;;5.47;3.20;;;20.30;38.80;;;13.32;45.64;95166.28;4872009;29;20069;-50
2023/03/17 08:59:10;;;;;;;4.57;3.10;;;20.30;38.60;;;13.52;46.70;95159.00;4858906;29;20029;-47
2023/03/17 09:01:38;;;;;;;5.97;3.53;;;20.30;38.50;;;13.71;45.71;95159.75;4858337;29;20116;-48
2023/03/17 09:04:05;;;;;;;7.03;3.50;;;20.30;38.40;;;13.59;45.13;95154.06;4858446;29;20124;-48
2023/03/17 09:06:31;;;;;;;4.07;3.38;;;20.30;38.20;;;13.45;45.36;95155.91;4858604;29;20076;-48
2023/03/17 09:08:57;;;;;;;7.30;4.28;;;20.40;38.00;;;13.65;45.75;95156.34;4857385;29;20091;-48
2023/03/17 09:11:31;;;;;;;7.68;3.33;;;20.60;37.70;;;13.99;45.23;95163.25;4858936;29;20428;-48
2023/03/17 09:13:58;;;;;;;4.10;3.25;;;20.90;37.40;;;14.49;44.38;95157.22;4857408;29;20033;-51
2023/03/17 09:16:26;;;;;;;7.07;4.00;;;21.20;37.30;;;14.70;42.78;95163.00;4858379;29;20037;-47
2023/03/17 09:18:52;;;;;;;7.10;4.28;;;21.50;36.80;;;14.72;42.43;95148.19;4858659;29;20132;-48
2023/03/17 09:21:20;;;;;;;4.53;3.38;;;21.70;36.50;;;14.81;42.66;95161.66;4859219;29;20021;-47
2023/03/17 09:23:46;;;;;;;3.88;3.28;;;21.90;36.10;;;14.78;41.80;95159.59;4858362;29;20037;-48
2023/03/17 09:26:12;;;;;;;3.95;3.17;;;22.10;35.60;;;14.83;42.49;95161.38;4859231;29;20031;-52
2023/03/17 09:28:37;;;;;;;6.22;3.53;;;22.30;35.30;;;15.06;41.87;95157.63;4858505;29;20025;-48
2023/03/17 09:31:10;;;;;;;4.32;3.30;;;22.50;35.00;;;15.37;40.77;95156.94;4858792;29;20025;-48
2023/03/17 09:33:38;;;;;;;6.05;3.67;;;22.70;34.30;;;15.54;41.68;95154.34;4857553;29;20044;-50
2023/03/17 09:36:05;;;;;;;8.77;3.25;;;23.00;34.30;;;15.75;41.07;95160.03;4858582;29;20478;-48
2023/03/17 09:38:32;;;;;;;3.90;3.45;;;23.10;34.10;;;16.07;39.49;95155.47;4856730;29;20127;-48
2023/03/17 09:41:56;;;;;;;4.38;3.42;;;23.40;33.60;;;16.39;38.28;95155.13;4858665;29;20069;-50
2023/03/17 09:44:48;;;;;;;6.40;3.33;;;23.80;33.00;;;16.85;38.09;95161.13;4855076;29;20140;-51
2023/03/17 09:47:52;;;;;;;4.88;3.80;;;24.20;32.50;;;17.25;36.98;95166.38;4859676;29;20032;-48
2023/03/17 09:50:44;;;;;;;4.90;3.70;;;24.50;32.20;;;17.30;37.67;95152.78;4860173;29;20052;-54
2023/03/17 09:53:36;;;;;;;4.78;3.45;;;24.90;31.70;;;17.57;36.03;95157.00;4861648;29;20036;-49
2023/03/17 09:56:14;;;;;;;3.75;3.30;;;25.30;31.10;;;17.92;35.51;95148.88;4867725;29;20111;-48
2023/03/17 09:58:58;;;;;;;4.35;3.10;;;25.70;30.80;;;18.10;34.62;95152.31;4875509;29;20037;-48
2023/03/17 10:01:25;;;;;;;5.75;3.70;;;26.00;30.10;;;18.38;34.84;95150.78;4859948;29;20400;-52
2023/03/17 10:03:51;;;;;;;4.05;3.75;;;26.20;30.00;;;18.52;33.54;95152.44;4860024;29;20791;-48
2023/03/17 10:06:40;;;;;;;3.58;3.28;;;26.40;29.60;;;18.38;33.82;95148.09;4861529;29;20556;-49
2023/03/17 10:09:42;;;;;;;4.25;3.40;;;26.50;29.20;;;18.44;32.66;95138.69;4866090;29;20397;-52
2023/03/17 10:12:58;;;;;;;6.22;4.50;;;26.60;28.80;;;18.64;31.99;95142.53;4856467;29;20036;-47
2023/03/17 10:16:21;;;;;;;5.70;4.45;;;26.70;28.30;;;18.33;32.20;95140.16;4865368;29;20066;-47
2023/03/17 10:19:23;;;;;;;4.78;4.10;;;26.50;28.00;;;17.75;34.04;95134.31;4834951;29;20080;-49
2023/03/17 10:22:15;;;;;;;6.72;4.20;;;26.30;27.90;;;17.64;34.15;95127.69;4859458;29;20036;-49
2023/03/17 10:24:53;;;;;;;5.25;4.22;;;26.10;27.80;;;17.95;33.68;95132.88;4856880;29;20029;-50
2023/03/17 10:27:20;;;;;;;6.20;3.83;;;26.00;27.80;;;17.85;34.87;95127.81;4854195;29;20462;-47
2023/03/17 10:29:46;;;;;;;4.82;4.32;;;26.00;28.00;;;18.03;33.90;95125.88;4867149;29;20483;-48
2023/03/17 10:32:14;;;;;;;5.38;4.00;;;26.00;27.80;;;18.41;33.83;95128.56;4859791;29;20025;-49